Aeroporto :
LOGIN :

Iscrizione | Disclaimer

   EN    FR    IT 

 










Sommario :    VFR   VFR Marginale   IFR   IFR Intensivo   IFR Molto Intensivo
Visibilità : 
Base nubi : 
>= 8 km
>= 3000ft
5 / 8 km
1000 / 3000 ft
1500m / 5 km
500 / 1000 ft
800 / 1500m
200 / 500 ft
< 800m
< 200 ft
Simboli :   Temporali  Nebbia  Neve Forte  Precipitazioni Forti  Vento > 20 kt
SIGMETs :   Varie  Temporali  Ghiacco  Turbolenza  Onda orograficha  Ceneri Vulcaniche






- Altitudine del aeroporto : 86 ft
- Codice IATA : HAU


ENHD - Haugesund

ULTIMO METAR :
  • 140850Z 08009KT 9999 -RA FEW009 SCT023 BKN050 06/01 Q1003

METARs OBSOLETI :
  • 140820Z 04009KT 010V070 9999 FEW015 SCT040 BKN060 05/01 Q1002
  • 140750Z 05006KT 9999 FEW015 SCT030 BKN055 05/01 Q1001
  • 140720Z 03008KT 9999 FEW025 BKN070 05/01 Q1001
  • 140650Z 05010KT 9999 FEW020 BKN075 05/01 Q1000
  • 140620Z 07011KT 9999 FEW020 SCT050 BKN080 05/00 Q1000

TAF TAF ENHD
Valido dal 14 a 09 ore il 14 a 18 ore UTC


140800Z 1409/1418 07008KT 9999 FEW018 BKN050
TEMPO 1409/1418 SHRA SCT018CB BKN030



MetMap, La meteo Aeronautica in un colpo d'occhio ! - Copyright ORBIFLY Dicembre 2007 - Disclaimer

ORBIFLY MET'MAP TEAM :

Programmazione e sviluppo : Alexandra Zaïnal
Concezione e sviluppo : Baudouin d'Aumeries
Co-Programmazione e sviluppo : Marc-Olivier Méhu
Supporto tecnico e logistico : Manuel Goepfert
Aiuto per la traduzione : Arnaldo La Scala

Contatto : metmap@orbifly.com




FONTI E CREDITI :

   NOAA